Date,TemperatureHighF,TemperatureAvgF,TemperatureLowF,DewpointHighF,DewpointAvgF,DewpointLowF,HumidityHigh,HumidityAvg,HumidityLow,PressureMaxIn,PressureMinIn,WindSpeedMaxMPH,WindSpeedAvgMPH,GustSpeedMaxMPH,PrecipitationSumIn
2013-1-1,45.5,41.3,37.3,41.2,38.5,35.2,95,90,83,29.88,29.25,11,2,20,0.17
2013-1-2,52.9,47.5,40.2,51.2,46.1,38.0,97,95,92,30.04,29.88,12,2,20,0.14
2013-1-3,53.4,51.7,50.4,50.7,49.5,47.7,95,92,87,30.37,30.04,9,3,20,0.02
2013-1-4,51.1,49.7,48.2,49.3,47.7,46.4,96,93,87,30.42,30.36,5,1,10,0.01
2013-1-5,51.8,49.9,45.8,49.2,47.3,42.8,96,91,86,30.39,30.22,11,2,14,0.07
2013-1-6,50.5,46.5,42.1,48.2,45.0,40.6,97,95,88,30.38,30.13,4,0,8,0.08
2013-1-7,50.3,49.3,48.4,49.7,48.2,47.3,98,96,94,30.13,29.94,4,0,7,0.27
2013-1-8,52.0,48.2,40.3,51.1,46.3,38.7,98,93,86,30.11,29.90,9,1,15,0.12
2013-1-9,47.1,42.2,37.2,44.0,40.2,35.8,97,93,86,30.11,30.00,5,1,11,0.00
2013-1-10,38.3,36.4,32.6,37.7,35.7,31.5,98,98,95,30.00,29.90,2,0,3,0.01
2013-1-11,43.2,39.7,37.7,42.0,38.6,35.7,98,96,92,29.96,29.89,1,0,3,0.02
2013-1-12,43.6,37.7,35.4,38.1,35.1,33.7,95,91,80,30.06,29.88,2,0,4,0.00
2013-1-13,37.9,36.4,33.8,36.8,34.8,32.6,97,94,89,30.07,29.92,2,0,6,0.08
2013-1-14,40.9,36.2,32.9,38.2,34.1,30.6,98,92,84,29.92,29.71,9,1,11,0.06
2013-1-15,40.4,32.9,28.9,35.8,31.2,27.3,97,94,83,29.86,29.76,3,0,5,0.00
2013-1-16,34.9,32.3,28.2,30.6,28.9,26.4,94,88,83,29.91,29.78,1,0,3,0.00
2013-1-17,38.2,35.2,33.9,31.1,29.8,28.7,86,81,73,29.92,29.71,4,0,7,0.00
2013-1-18,37.9,34.8,31.6,31.4,27.2,24.6,85,74,62,29.71,29.47,8,2,17,0.00
2013-1-19,38.7,34.8,32.4,34.1,30.9,28.4,89,86,80,29.66,29.49,5,0,9,0.00
2013-1-20,35.9,34.7,33.8,31.4,30.0,28.8,89,83,76,29.65,29.47,3,0,7,0.00
2013-1-21,37.2,35.8,34.3,33.8,32.4,29.7,94,88,81,29.47,29.40,8,2,15,0.02
2013-1-22,37.4,35.1,32.5,33.8,32.5,30.5,95,90,84,29.77,29.42,7,1,13,0.08
2013-1-23,37.0,34.9,31.9,33.5,32.6,30.3,96,91,86,29.90,29.77,2,0,6,0.01
2013-1-24,41.3,36.6,34.6,34.5,32.9,30.4,95,87,68,29.99,29.89,4,0,8,0.00
2013-1-25,38.0,35.8,33.8,34.6,33.4,31.2,96,91,79,29.89,29.33,6,1,9,0.24
2013-1-26,49.0,40.3,34.7,47.6,38.0,33.3,97,92,80,29.51,28.86,8,1,11,0.46
2013-1-27,50.9,42.9,37.0,48.9,40.2,35.1,95,90,83,29.17,28.72,12,4,21,0.35
2013-1-28,47.4,43.3,39.7,44.8,40.6,36.4,95,90,83,29.27,28.82,13,4,18,0.72
2013-1-29,53.4,47.2,45.2,51.7,43.1,37.6,97,86,70,29.28,28.89,15,4,25,0.32
2013-1-30,48.9,44.3,41.0,41.4,38.9,37.0,92,81,71,29.60,29.07,15,5,23,0.11
2013-1-31,47.0,43.1,39.5,42.0,39.7,37.0,96,88,79,29.60,29.12,20,4,30,0.64
2013-2-1,45.0,40.0,32.2,42.4,36.6,29.1,95,88,76,29.78,29.30,7,2,14,0.15
2013-2-2,40.0,31.9,28.6,36.1,29.4,26.8,95,91,85,30.09,29.78,3,0,164,0.00
2013-2-3,49.6,46.5,38.7,48.0,43.2,36.5,97,88,77,29.98,29.46,16,4,21,0.19
2013-2-4,49.0,40.0,33.9,47.0,35.9,31.2,93,85,72,29.54,29.29,16,6,30,0.28
2013-2-5,46.4,39.6,33.2,41.1,35.3,30.3,95,85,72,29.58,29.03,11,3,19,0.07
2013-2-6,43.8,39.1,34.2,33.6,30.0,28.1,86,70,55,30.10,29.59,10,2,13,0.00
2013-2-7,42.0,37.9,32.6,36.1,33.9,29.7,93,86,78,30.10,29.95,6,1,8,0.00
2013-2-8,46.1,40.2,33.5,39.8,36.4,32.0,97,87,72,30.13,30.02,5,1,9,0.05
2013-2-9,41.9,40.4,38.6,41.1,39.2,37.5,97,96,94,30.06,29.73,3,0,5,0.11
2013-2-10,39.4,37.3,35.2,37.4,35.8,33.9,96,94,92,29.73,29.33,5,1,9,0.31
2013-2-11,43.6,38.8,35.5,36.7,33.2,29.4,93,81,64,29.88,29.39,5,1,13,0.02
2013-2-12,40.4,37.2,34.9,32.7,31.2,29.6,84,79,70,30.02,29.88,5,1,7,0.00
2013-2-13,45.0,37.1,33.2,44.1,34.6,28.4,97,91,76,29.99,29.45,5,1,8,0.95
2013-2-14,47.6,44.8,42.7,43.9,42.0,40.8,95,90,82,29.78,29.49,9,2,12,0.08
2013-2-15,51.9,44.2,36.5,43.5,40.0,34.9,95,86,69,30.05,29.78,7,1,10,0.01
2013-2-16,48.7,43.5,36.5,45.9,41.3,35.2,96,92,86,30.05,30.02,3,0,8,0.00
2013-2-17,52.6,44.6,33.9,42.9,39.1,31.9,93,82,64,30.04,29.99,5,1,9,0.00
2013-2-18,51.7,36.5,28.5,38.3,31.9,27.3,97,85,55,30.07,30.02,2,0,3,0.01
2013-2-19,50.1,36.2,25.8,38.8,32.4,24.5,97,87,60,30.08,30.03,5,0,8,0.01
2013-2-20,43.6,39.5,31.4,39.1,35.5,27.9,95,86,76,30.25,30.08,7,1,10,0.00
2013-2-21,41.5,34.5,29.0,30.4,27.4,25.1,90,76,63,30.27,30.22,6,1,8,0.00
2013-2-22,38.4,35.6,34.0,28.7,26.2,23.5,79,68,61,30.27,30.22,6,0,7,0.00
2013-2-23,44.5,36.0,31.5,32.9,29.3,26.6,91,78,56,30.35,30.22,2,0,5,0.00
2013-2-24,47.3,37.0,30.2,36.7,32.4,28.4,94,84,62,30.43,30.34,1,0,3,0.00
2013-2-25,49.5,36.4,27.5,38.1,32.1,26.0,97,86,60,30.59,30.43,4,0,6,0.00
2013-2-26,51.2,40.1,33.0,39.7,34.9,31.4,95,83,57,30.65,30.58,3,0,8,0.00
2013-2-27,53.9,38.5,33.2,43.7,35.8,31.9,97,91,67,30.65,30.54,2,0,4,0.00
2013-2-28,49.7,39.3,31.6,42.8,36.6,30.5,98,91,74,30.54,30.46,1,0,3,0.01
2013-3-1,53.9,41.9,32.6,40.7,35.8,30.5,96,81,54,30.50,30.39,3,0,5,0.00
2013-3-2,57.8,45.3,32.0,45.3,39.9,30.2,96,82,59,30.39,30.20,8,1,10,0.00
2013-3-3,47.4,44.9,42.2,43.8,41.1,37.1,94,87,78,30.21,30.04,3,0,5,0.00
2013-3-4,48.5,42.2,34.9,38.6,36.0,32.2,92,79,63,30.04,29.69,5,0,8,0.00
2013-3-5,52.8,39.7,30.5,39.4,34.0,29.0,96,82,54,29.69,29.58,2,0,5,0.00
2013-3-6,43.2,40.9,37.7,38.9,37.1,34.1,92,87,81,29.66,29.58,7,1,12,0.02
2013-3-7,45.4,42.7,40.9,42.9,40.4,38.4,95,91,87,29.59,29.48,12,2,16,0.13
2013-3-8,42.2,41.2,40.3,39.3,38.1,37.3,91,89,87,29.65,29.49,8,3,18,0.02
2013-3-9,40.4,39.0,36.8,37.8,35.5,29.4,93,87,74,29.86,29.65,9,2,14,0.06
2013-3-10,36.9,33.1,27.9,30.9,27.6,23.4,88,80,72,30.08,29.86,4,1,15,0.00
2013-3-11,40.6,31.3,24.4,26.6,21.9,19.4,85,69,51,30.11,30.07,5,1,11,0.01
2013-3-12,48.6,35.5,23.0,34.6,27.2,19.6,92,73,50,30.10,29.86,7,1,11,0.00
2013-3-13,50.2,37.2,27.9,31.8,26.9,22.2,92,69,39,29.95,29.84,4,0,7,0.00
2013-3-14,45.3,37.5,27.6,42.0,34.5,24.5,93,89,82,29.95,29.53,8,1,10,0.05
2013-3-15,47.7,42.3,35.7,42.4,38.8,33.8,94,88,76,29.53,29.32,11,2,13,0.11
2013-3-16,41.5,37.4,34.2,38.3,35.5,32.9,96,93,85,29.33,29.17,7,0,9,0.03
2013-3-17,47.3,38.7,34.7,43.5,36.6,33.1,97,92,80,29.21,29.08,4,0,9,0.11
2013-3-18,41.6,38.5,34.4,39.3,35.2,30.3,96,88,81,29.50,29.20,10,2,14,0.06
2013-3-19,40.0,36.8,34.8,34.4,32.5,30.3,94,85,77,29.59,29.48,9,2,15,0.05
2013-3-20,43.1,37.1,32.4,35.8,32.6,29.1,94,84,66,29.99,29.60,7,1,10,0.00
2013-3-21,44.6,36.1,29.0,32.6,29.0,26.6,94,77,52,30.03,29.91,13,2,17,0.01
2013-3-22,38.0,35.7,33.3,33.3,31.4,28.7,94,85,72,29.94,29.85,15,3,21,0.07
2013-3-23,35.6,34.7,33.5,31.7,29.3,25.8,92,81,70,30.11,29.93,9,3,16,0.07
2013-3-24,39.8,36.0,34.0,28.1,26.6,24.6,75,69,58,30.23,30.11,13,3,23,0.02
2013-3-25,39.7,36.2,33.2,29.5,27.9,26.3,79,72,64,30.24,30.20,11,2,13,0.00
2013-3-26,41.1,35.3,28.4,32.2,28.7,24.2,89,77,61,30.21,30.12,7,1,10,0.01
2013-3-27,45.2,34.6,27.9,34.3,29.2,24.1,91,81,53,30.12,30.04,8,1,11,0.01
2013-3-28,44.7,36.4,30.3,33.6,29.0,25.7,92,76,50,30.06,29.99,9,1,13,0.04
2013-3-29,46.4,36.4,28.8,34.6,29.0,24.2,93,76,46,29.99,29.88,6,1,10,0.00
2013-3-30,44.7,36.2,26.3,31.7,27.6,23.7,93,73,48,29.96,29.91,5,0,7,0.00
2013-3-31,44.2,37.5,30.3,29.4,26.4,23.6,86,66,46,29.96,29.92,8,1,9,0.00
2013-4-1,47.9,37.7,29.8,28.4,26.3,24.6,83,65,43,30.04,29.94,8,1,12,0.00
2013-4-2,47.7,38.4,28.4,33.0,28.4,24.0,88,69,47,30.20,30.04,7,1,12,0.00
2013-4-3,52.3,39.3,26.2,35.4,29.5,24.3,96,71,41,30.27,30.20,8,0,11,0.00
2013-4-4,52.8,41.7,31.7,35.0,30.7,27.6,87,66,42,30.24,30.18,5,1,9,0.00
2013-4-5,54.6,42.5,34.2,34.6,30.6,27.0,88,65,39,30.22,30.17,6,0,9,0.00
2013-4-6,50.8,39.3,26.7,38.1,31.4,24.3,93,75,54,30.24,30.15,7,1,9,0.00
2013-4-7,53.2,41.5,36.2,38.7,35.0,32.7,90,79,55,30.15,29.93,8,1,10,0.00
2013-4-8,45.2,40.4,36.4,34.6,31.2,25.9,87,71,52,29.93,29.68,6,1,10,0.00
2013-4-9,50.1,41.6,33.7,34.9,29.3,26.5,83,63,43,29.68,29.60,9,2,16,0.00
2013-4-10,50.5,41.2,32.1,40.2,35.8,30.0,95,82,64,29.66,29.53,5,1,8,0.00
2013-4-11,46.8,41.0,39.0,41.5,37.4,35.1,93,87,78,29.54,29.36,4,0,8,0.13
2013-4-12,45.4,42.8,38.8,42.7,40.6,37.2,95,92,88,29.60,29.36,2,0,7,0.18
2013-4-13,55.8,47.5,40.5,49.2,41.4,38.2,97,81,54,29.68,29.33,11,1,13,0.04
2013-4-14,58.6,53.8,49.4,50.9,48.7,46.2,95,83,69,29.39,29.30,17,8,25,0.31
2013-4-15,59.8,52.9,47.5,49.6,46.6,44.1,92,79,67,29.67,29.38,19,5,28,0.13
2013-4-16,54.1,49.4,44.9,47.0,43.0,37.6,93,79,63,29.79,29.27,19,6,30,0.33
2013-4-17,55.2,46.9,40.8,51.0,43.7,37.4,97,89,76,29.78,29.04,18,4,22,0.61
2013-4-18,54.6,48.7,44.7,47.3,43.8,39.7,95,83,71,29.86,29.02,15,5,27,0.14
2013-4-19,58.4,48.1,36.7,40.8,37.8,33.8,93,70,47,30.37,29.87,8,2,12,0.00
2013-4-20,58.4,49.1,38.8,44.6,40.9,36.3,95,75,55,30.37,30.07,11,3,17,0.00
2013-4-21,55.1,48.1,44.2,45.7,42.7,39.7,92,82,63,30.07,29.80,11,3,15,0.12
2013-4-22,54.8,48.0,43.4,49.5,43.7,40.1,94,85,73,29.80,29.55,17,4,24,0.10
2013-4-23,56.7,50.6,46.7,46.7,43.5,41.2,88,77,62,30.00,29.68,17,5,24,0.03
2013-4-24,56.2,49.3,44.1,50.0,41.9,33.8,96,77,48,30.17,29.83,10,2,15,0.31
2013-4-25,54.2,45.9,41.5,45.5,39.8,36.6,91,80,59,30.16,29.98,9,2,17,0.08
2013-4-26,56.8,44.9,38.4,42.9,38.4,34.7,91,79,49,30.00,29.81,11,2,18,0.08
2013-4-27,57.0,47.0,36.7,37.8,34.1,28.9,86,63,38,30.09,29.95,10,2,14,0.00
2013-4-28,49.6,44.2,40.6,42.3,38.6,36.3,90,81,68,29.60,29.57,13,4,22,0.14
2013-4-29,55.0,47.4,41.1,42.5,38.7,35.6,90,73,50,30.06,29.57,14,4,22,0.02
2013-4-30,57.9,47.9,35.1,40.6,35.7,27.7,93,66,32,30.25,30.06,9,2,12,0.00
2013-5-1,57.4,49.2,39.1,44.5,38.7,32.1,90,70,39,30.22,30.05,11,3,16,0.02
2013-5-2,56.8,44.9,32.1,46.5,38.6,29.9,95,80,56,30.22,29.94,10,1,15,0.09
2013-5-3,52.9,49.4,42.6,50.0,46.7,38.9,94,90,86,29.94,29.62,13,3,17,0.37
2013-5-4,51.8,45.9,38.6,44.5,40.4,35.7,91,82,65,29.83,29.69,10,2,14,0.00
2013-5-5,61.4,54.0,46.7,54.8,49.5,43.7,92,85,77,29.97,29.83,9,2,15,0.00
2013-5-6,58.5,53.8,49.4,53.4,49.8,46.8,92,86,81,30.00,29.94,6,1,11,0.01
2013-5-7,74.4,58.7,42.1,53.5,46.5,40.2,96,68,35,30.01,29.78,5,0,10,0.00
2013-5-8,58.2,53.9,49.5,53.3,46.9,41.4,88,78,60,29.78,29.40,8,2,14,0.06
2013-5-9,53.6,48.7,43.8,45.4,42.8,40.0,93,81,66,29.46,29.28,11,2,23,0.13
2013-5-10,55.5,47.8,41.2,48.9,43.8,38.9,95,86,68,29.58,29.34,10,2,17,0.09
2013-5-11,50.3,47.0,42.1,46.9,43.8,40.0,95,89,82,29.70,29.43,12,3,16,0.11
2013-5-12,54.6,48.1,43.2,50.5,44.2,38.9,93,86,80,29.74,29.53,12,3,20,0.07
2013-5-13,50.8,43.9,37.8,43.5,39.6,35.6,94,85,69,29.59,29.37,16,4,22,0.24
2013-5-14,56.0,46.7,41.1,46.2,40.8,37.6,92,81,60,29.38,29.31,16,3,20,0.17
2013-5-15,59.7,48.2,36.4,44.1,38.9,34.5,95,73,46,29.37,29.26,12,2,18,0.00
2013-5-16,61.5,48.8,38.9,43.8,39.4,36.5,93,72,44,29.63,29.35,5,1,10,0.01
2013-5-17,66.9,53.3,38.9,44.6,39.5,36.5,94,63,36,29.82,29.63,5,0,8,0.00
2013-5-18,59.1,52.7,48.2,56.4,49.7,40.6,95,90,65,29.82,29.64,5,0,9,0.39
2013-5-19,60.0,54.5,50.5,55.4,51.8,48.8,96,91,83,29.93,29.75,4,0,7,0.00
2013-5-20,75.6,62.1,52.6,61.5,54.7,50.4,95,78,54,29.97,29.86,8,2,15,0.00
2013-5-21,66.1,56.2,48.2,50.5,46.1,43.1,90,70,46,30.06,29.97,11,3,15,0.00
2013-5-22,60.8,51.2,41.7,44.7,39.7,33.5,89,67,39,30.07,29.98,13,3,19,0.02
2013-5-23,55.6,46.8,41.0,44.2,36.5,33.1,83,68,51,29.99,29.89,9,2,15,0.01
2013-5-24,63.6,53.3,44.5,41.4,37.3,33.1,74,56,36,30.16,29.89,6,1,9,0.01
2013-5-25,66.5,52.8,37.3,45.3,40.2,34.9,94,65,38,30.16,30.07,8,1,12,0.00
2013-5-26,65.7,54.6,47.0,51.7,45.7,39.4,85,73,54,30.08,29.68,8,1,11,0.00
2013-5-27,54.5,50.6,47.3,49.7,47.0,43.7,93,88,79,29.68,29.37,8,1,13,0.57
2013-5-28,59.6,51.9,44.2,51.8,45.9,41.8,94,81,60,29.73,29.45,6,0,9,0.02
2013-5-29,71.8,56.3,39.9,56.2,48.2,38.0,96,76,49,29.88,29.73,4,0,6,0.02
2013-5-30,76.3,63.3,54.7,54.8,49.6,44.9,80,62,44,30.02,29.86,5,0,8,0.00
2013-5-31,63.4,54.7,46.8,53.7,47.2,41.2,92,77,55,30.15,30.02,10,2,16,0.02
2013-6-1,62.0,51.7,41.5,51.2,42.8,37.9,94,73,46,30.27,30.14,11,2,13,0.00
2013-6-2,67.8,55.4,40.9,47.3,43.2,38.1,92,66,41,30.39,30.27,7,2,11,0.00
2013-6-3,72.9,60.1,51.8,58.6,52.7,47.1,89,77,57,30.44,30.39,5,0,8,0.00
2013-6-4,77.4,63.9,53.4,55.7,51.1,46.6,93,66,42,30.44,30.26,5,0,8,0.00
2013-6-5,72.4,60.4,52.4,57.7,52.1,47.0,87,75,53,30.26,30.09,3,0,6,0.01
2013-6-6,77.7,61.4,47.4,55.8,49.1,44.9,94,68,32,30.20,30.13,5,1,8,0.00
2013-6-7,74.0,61.3,46.1,56.3,49.7,43.5,94,68,47,30.27,30.21,4,0,7,0.00
2013-6-8,80.1,63.1,46.8,53.2,47.5,43.2,91,61,31,30.26,30.04,5,0,11,0.00
2013-6-9,75.1,59.2,48.8,56.8,50.6,46.1,93,75,48,30.08,29.91,8,0,8,0.00
2013-6-10,65.0,57.4,51.4,54.3,50.4,46.9,87,78,66,29.97,29.84,2,0,8,0.00
2013-6-11,61.5,55.7,51.3,55.4,51.1,46.7,91,85,65,29.85,29.61,6,0,8,0.18
2013-6-12,64.7,57.9,51.9,56.2,52.5,48.0,94,83,65,29.61,29.54,8,2,12,0.06
2013-6-13,62.7,54.9,45.5,49.3,46.2,43.3,95,74,55,29.74,29.52,13,2,16,0.02
2013-6-14,65.1,55.2,45.6,53.0,48.0,43.6,96,78,57,29.76,29.50,11,2,15,0.11
2013-6-15,56.8,51.3,48.0,52.4,48.3,45.1,95,90,82,29.54,29.32,11,2,19,0.28
2013-6-16,70.9,57.5,47.6,55.5,50.1,45.9,97,78,49,29.93,29.54,5,1,7,0.00
2013-6-17,73.1,60.4,50.4,55.5,51.7,48.4,94,75,44,30.01,29.93,2,0,5,0.00
2013-6-18,72.8,63.1,54.8,57.1,53.5,50.3,89,73,50,29.97,29.87,7,1,11,0.00
2013-6-19,68.8,58.6,51.2,51.6,48.4,45.4,88,71,46,29.98,29.91,10,2,14,0.00
2013-6-20,73.4,60.9,50.2,58.1,52.0,46.1,88,74,55,29.97,29.73,5,0,8,0.00
2013-6-21,70.0,60.9,56.7,56.3,52.2,46.6,89,75,47,29.74,29.53,6,1,10,0.00
2013-6-22,65.6,56.8,52.3,54.1,51.6,49.3,93,83,62,29.53,29.24,9,2,13,0.12
2013-6-23,62.3,55.9,52.1,54.1,50.4,45.4,95,82,71,29.92,29.34,13,3,18,0.11
2013-6-24,61.8,55.7,49.6,46.7,45.1,43.5,83,68,54,30.21,29.91,10,2,12,0.00
2013-6-25,64.7,56.7,44.4,52.7,48.4,41.5,93,75,61,30.34,30.21,5,1,9,0.00
2013-6-26,68.3,58.6,49.7,50.5,47.5,44.8,89,68,48,30.40,30.34,10,2,14,0.00
2013-6-27,61.5,55.3,50.8,58.2,51.4,44.8,94,87,74,30.37,30.10,5,1,9,0.26
2013-6-28,62.2,56.9,51.8,58.7,53.3,45.9,95,88,76,30.10,29.88,10,2,14,0.06
2013-6-29,60.6,55.1,48.9,54.7,50.0,45.3,92,83,70,30.09,30.03,7,2,13,0.00
2013-6-30,60.7,56.9,50.9,57.4,52.6,47.5,92,86,74,30.05,29.82,14,3,16,0.06
2013-7-1,63.9,55.7,49.6,50.9,47.3,44.2,92,75,52,29.85,29.79,10,2,13,0.04
2013-7-2,57.1,54.3,49.9,54.6,50.7,45.6,94,88,79,29.82,29.38,8,1,16,0.10
2013-7-3,65.0,59.3,54.3,56.2,53.9,51.6,96,83,66,29.75,29.39,13,1,13,0.02
2013-7-4,65.1,60.0,54.5,60.5,54.0,48.6,96,81,61,30.09,29.65,20,3,20,0.39
2013-7-5,68.1,59.9,54.1,56.2,53.0,48.0,92,79,63,30.31,30.09,7,2,11,0.02
2013-7-6,73.0,60.6,49.2,57.8,53.8,47.5,96,79,54,30.37,30.25,7,1,12,0.00
2013-7-7,79.6,67.9,58.4,59.6,56.5,52.0,93,70,44,30.53,30.37,7,1,9,0.00
2013-7-8,86.0,68.7,55.6,63.4,58.0,53.0,94,72,42,30.57,30.42,4,0,7,0.00
2013-7-9,84.7,72.0,57.3,64.2,59.7,54.9,94,68,45,30.42,30.27,8,2,11,0.00
2013-7-10,80.4,67.6,59.5,63.0,58.3,54.9,86,74,53,30.35,30.26,2,0,6,0.00
2013-7-11,83.5,69.7,58.7,66.4,59.9,53.2,88,72,54,30.30,30.19,5,1,7,0.00
2013-7-12,84.7,69.6,59.1,67.0,60.5,57.0,94,76,44,30.21,30.15,6,1,9,0.00
2013-7-13,76.1,66.8,58.3,60.9,56.4,49.5,93,71,44,30.25,30.19,9,1,13,0.00
2013-7-14,71.5,62.9,55.7,55.7,52.3,49.5,87,69,51,30.25,30.14,7,2,12,0.00
2013-7-15,68.8,61.9,55.6,58.1,54.5,50.6,88,77,63,30.17,30.13,9,1,11,0.00
2013-7-16,74.0,66.1,61.0,61.6,58.6,55.7,92,78,59,30.19,30.13,9,1,10,0.00
2013-7-17,77.6,68.2,57.7,60.6,57.1,54.1,90,70,46,30.28,30.19,10,1,10,0.00
2013-7-18,82.6,70.3,59.7,66.5,61.0,56.5,92,74,52,30.31,30.27,6,1,10,0.00
2013-7-19,89.0,70.8,53.0,62.9,56.4,50.9,96,65,30,30.33,30.24,4,0,7,0.00
2013-7-20,85.4,70.1,57.1,64.0,58.4,54.4,93,69,44,30.30,30.18,3,0,8,0.00
2013-7-21,77.5,64.6,58.6,59.7,55.8,53.1,87,74,52,30.22,30.06,7,1,10,0.00
2013-7-22,76.3,66.0,60.6,63.1,58.5,54.9,87,78,60,30.08,29.92,5,0,9,0.00
2013-7-23,71.5,64.7,61.4,65.9,61.1,57.6,95,88,79,29.93,29.79,6,0,10,0.34
2013-7-24,79.1,67.2,59.2,66.5,60.5,57.4,96,81,55,29.83,29.79,7,1,9,0.04
2013-7-25,75.5,65.0,60.5,67.6,60.8,57.2,95,87,67,29.82,29.72,2,0,4,0.39
2013-7-26,77.1,66.0,58.2,64.1,59.8,53.7,95,82,52,29.79,29.74,9,1,9,0.13
2013-7-27,80.2,65.0,53.3,62.3,56.8,51.3,96,77,43,29.78,29.58,5,0,7,0.08
2013-7-28,67.0,61.7,58.3,61.9,58.7,55.6,96,90,79,29.59,29.48,8,0,8,0.46
2013-7-29,72.1,62.9,55.2,63.1,57.4,53.5,96,83,64,29.68,29.55,6,1,12,0.02
2013-7-30,71.0,60.3,50.9,57.2,53.7,48.9,96,80,53,29.74,29.69,13,1,13,0.02
2013-7-31,69.9,60.4,52.4,56.9,53.1,48.3,95,79,50,29.81,29.69,6,0,7,0.05
2013-8-1,68.6,63.3,58.3,64.8,60.8,56.0,97,92,85,29.68,29.54,7,0,9,0.54
2013-8-2,73.9,66.5,60.1,62.4,57.8,54.2,92,75,51,29.54,29.47,12,2,20,0.02
2013-8-3,67.6,60.1,56.3,57.3,53.8,51.1,92,81,59,29.78,29.51,9,2,15,0.09
2013-8-4,72.9,62.4,53.0,57.1,53.5,50.7,95,75,49,29.84,29.77,9,1,11,0.01
2013-8-5,73.0,60.1,51.8,58.8,52.1,48.0,95,77,51,29.82,29.70,9,1,14,0.00
2013-8-6,69.0,59.2,50.7,53.5,50.5,46.9,89,74,54,29.91,29.82,6,1,10,0.00
2013-8-7,71.6,60.7,54.7,59.2,54.3,51.5,91,81,59,30.00,29.89,4,0,7,0.03
2013-8-8,71.8,60.0,48.0,57.7,52.4,46.1,96,78,55,30.00,29.84,7,0,9,0.00
2013-8-9,67.3,60.5,55.2,58.9,53.5,48.3,95,79,56,30.08,29.81,9,2,16,0.09
2013-8-10,66.6,58.5,52.7,54.0,51.5,49.1,92,79,61,30.08,29.93,7,1,11,0.01
2013-8-11,66.6,58.0,52.8,55.3,51.7,49.1,94,80,58,29.93,29.81,11,2,14,0.05
2013-8-12,67.8,59.1,52.8,53.0,50.7,48.0,90,75,54,29.98,29.78,11,2,15,0.00
2013-8-13,69.0,57.8,46.5,52.5,48.7,44.2,94,74,54,30.09,29.99,7,1,10,0.00
2013-8-14,71.7,61.4,56.2,60.6,56.3,50.8,94,84,60,30.08,29.87,7,0,9,0.09
2013-8-15,68.4,63.1,60.3,63.6,60.7,58.8,96,92,82,29.87,29.68,8,1,13,0.21
2013-8-16,67.9,60.1,53.4,59.4,55.0,51.5,95,84,67,29.81,29.69,9,1,14,0.02
2013-8-17,70.6,59.6,54.6,63.2,55.9,51.0,95,88,72,29.78,29.35,10,2,15,0.35
2013-8-18,65.3,57.4,53.3,55.2,51.1,49.6,90,80,61,29.75,29.41,10,3,18,0.02
2013-8-19,67.1,58.2,53.0,55.7,51.9,48.6,92,80,57,30.12,29.75,12,2,17,0.02
2013-8-20,68.4,60.2,54.9,58.6,55.2,51.5,93,84,66,30.18,30.06,6,1,10,0.09
2013-8-21,71.3,63.0,58.1,62.3,58.8,55.8,95,87,69,30.06,29.96,5,1,10,0.12
2013-8-22,71.5,62.4,57.7,62.4,58.3,55.6,96,87,72,30.06,29.93,5,0,8,0.00
2013-8-23,70.3,61.3,56.8,63.0,57.8,54.6,95,89,71,29.93,29.80,4,0,9,0.07
2013-8-24,68.7,60.1,51.2,57.0,53.6,47.2,95,80,61,29.91,29.84,4,1,7,0.00
2013-8-25,79.6,60.7,43.4,58.9,51.6,41.7,97,75,48,30.10,29.92,5,0,6,0.00
2013-8-26,71.6,60.4,49.3,59.8,54.2,47.1,96,81,64,30.12,30.05,5,1,9,0.00
2013-8-27,69.0,59.1,50.6,62.1,54.7,47.7,93,86,76,30.15,30.02,13,1,14,0.00
2013-8-28,65.8,56.3,50.1,54.2,49.3,46.4,92,78,56,30.17,30.03,7,1,10,0.00
2013-8-29,64.9,59.7,54.1,57.4,55.1,48.3,94,85,72,30.03,29.94,9,2,11,0.00
2013-8-30,66.8,58.5,52.1,61.6,53.9,43.0,93,85,69,30.03,29.80,14,2,19,0.01
2013-8-31,65.6,56.2,49.4,51.3,46.2,41.7,85,71,44,30.25,30.03,12,2,15,0.00
2013-9-1,60.2,57.3,54.1,55.7,52.0,49.1,90,83,74,30.24,30.10,11,4,20,0.00
2013-9-2,64.6,61.4,58.8,59.9,58.0,55.8,93,89,83,30.20,30.07,10,3,16,0.01
2013-9-3,71.3,63.6,58.4,61.7,57.5,54.0,93,82,56,30.20,30.12,7,2,12,0.00
2013-9-4,71.8,60.9,51.8,56.8,53.2,49.6,96,77,54,30.12,29.84,8,1,13,0.00
2013-9-5,67.2,57.8,45.2,53.7,47.5,41.2,87,70,44,29.87,29.82,6,1,10,0.00
2013-9-6,63.1,49.5,40.2,51.6,45.0,38.0,96,85,62,29.89,29.83,3,0,4,0.31
2013-9-7,60.0,53.0,46.9,54.3,48.1,44.7,96,84,67,29.85,29.68,8,1,13,0.25
2013-9-8,62.2,53.7,48.2,50.6,47.2,44.2,92,79,61,29.90,29.84,5,0,9,0.00
2013-9-9,69.2,53.6,45.6,54.7,48.8,43.8,97,85,51,30.11,29.90,4,0,7,0.01
2013-9-10,69.5,57.5,50.2,53.2,49.4,46.1,88,76,52,30.19,30.11,10,2,15,0.00
2013-9-11,62.5,56.3,50.2,59.2,53.8,47.7,95,91,86,30.18,30.02,4,0,6,0.19
2013-9-12,62.1,56.9,51.3,59.6,54.7,49.8,97,93,86,30.03,29.82,7,1,13,0.02
2013-9-13,53.7,50.8,46.0,51.3,47.9,44.3,95,90,85,30.04,29.94,4,0,9,0.01
2013-9-14,64.3,51.3,41.5,51.8,45.9,40.4,98,83,57,30.02,29.87,6,1,10,0.10
2013-9-15,58.6,51.4,42.7,56.3,48.0,40.2,96,88,64,29.86,29.16,13,3,23,0.58
2013-9-16,56.2,48.1,41.9,48.9,44.3,40.1,95,87,71,29.31,29.22,11,2,18,0.17
2013-9-17,59.2,50.9,44.2,50.4,45.0,41.2,91,80,65,29.35,29.25,11,2,14,0.01
2013-9-18,59.0,49.7,41.3,48.9,44.8,39.4,96,84,61,29.68,29.35,11,2,18,0.01
2013-9-19,56.2,50.6,46.9,54.2,48.7,44.3,96,93,90,29.73,29.44,7,0,9,0.29
2013-9-20,61.9,53.4,46.4,53.3,49.3,44.7,96,86,68,29.97,29.73,7,1,11,0.00
2013-9-21,61.4,57.1,49.9,58.9,53.9,47.1,95,90,82,30.05,29.95,5,1,9,0.00
2013-9-22,70.1,62.2,56.5,61.2,57.7,54.1,94,86,69,30.23,30.05,7,2,13,0.01
2013-9-23,64.8,59.9,54.0,60.5,57.2,51.9,96,91,84,30.22,30.05,4,0,6,0.00
2013-9-24,61.1,59.2,57.0,59.1,57.3,55.5,96,94,89,30.05,29.90,3,0,5,0.02
2013-9-25,57.1,54.7,46.6,55.5,51.9,44.5,95,90,81,29.99,29.84,3,0,7,0.00
2013-9-26,58.9,51.6,43.6,51.6,47.6,41.8,95,87,74,30.05,29.99,2,0,4,0.03
2013-9-27,60.4,56.6,52.4,57.4,54.5,50.7,96,93,89,29.99,29.87,0,0,3,0.03
2013-9-28,71.9,59.0,48.8,59.8,53.5,47.4,97,83,60,29.87,29.77,3,0,4,0.00
2013-9-29,67.4,56.3,49.1,54.8,49.8,46.4,92,80,59,29.86,29.80,5,0,8,0.00
2013-9-30,62.0,55.5,50.9,51.6,48.9,46.6,88,79,66,29.83,29.74,6,1,9,0.00
2013-10-1,63.7,55.5,49.4,50.4,48.0,45.2,92,77,57,29.82,29.74,6,1,10,0.07
2013-10-2,59.1,55.5,52.4,56.1,53.0,49.7,96,91,86,29.76,29.67,3,0,7,0.46
2013-10-3,66.5,60.9,56.8,62.7,59.0,55.6,97,94,83,29.67,29.47,5,0,10,0.76
2013-10-4,67.0,59.0,54.4,59.7,56.5,52.1,97,92,74,29.77,29.47,6,1,9,0.06
2013-10-5,65.1,57.1,51.9,55.4,52.8,49.4,94,86,67,30.02,29.77,7,1,11,0.00
2013-10-6,65.2,59.7,56.3,60.2,56.8,53.9,94,90,82,30.03,29.98,8,2,12,0.02
2013-10-7,66.8,61.7,59.3,60.2,58.5,57.3,95,90,78,30.01,29.92,12,2,16,0.06
2013-10-8,60.5,56.2,51.6,57.4,52.9,47.3,95,89,77,30.12,29.91,13,2,15,0.12
2013-10-9,54.2,49.9,43.6,49.1,43.3,33.2,92,78,63,30.12,29.93,14,3,20,0.06
2013-10-10,58.4,47.4,38.7,41.7,37.0,33.5,86,68,49,30.39,30.13,6,0,9,0.00
2013-10-11,53.9,43.9,34.2,45.1,39.1,31.8,94,84,70,30.45,30.37,4,0,6,0.00
2013-10-12,58.8,51.1,43.4,47.8,44.9,40.9,91,80,65,30.42,30.21,5,0,9,0.00
2013-10-13,55.4,50.0,43.7,48.5,45.6,41.6,94,85,73,30.21,29.98,3,0,7,0.00
2013-10-14,54.2,49.8,44.6,52.2,47.4,42.9,96,92,85,29.98,29.87,1,0,4,0.02
2013-10-15,59.3,49.7,43.8,51.4,45.9,41.6,95,87,66,29.92,29.85,4,0,7,0.00
2013-10-16,52.9,46.6,38.0,48.8,44.7,36.5,97,93,84,29.91,29.54,6,0,9,0.24
2013-10-17,54.8,49.8,46.3,53.6,48.6,44.9,97,96,94,29.91,29.59,3,0,7,0.18
2013-10-18,52.7,50.4,47.6,51.5,48.9,45.9,96,95,92,29.93,29.59,4,0,8,0.25
2013-10-19,58.9,54.4,52.7,58.0,53.3,51.5,97,96,94,29.59,29.38,2,0,5,0.48
2013-10-20,57.6,54.0,51.4,56.3,52.6,50.3,97,95,91,29.40,29.32,5,0,8,0.21
2013-10-21,56.6,53.8,52.0,53.1,51.8,50.1,97,93,86,29.45,29.19,5,0,8,0.47
2013-10-22,62.7,58.0,53.5,57.2,55.2,52.6,98,91,78,29.18,29.00,8,0,13,0.53
2013-10-23,56.8,52.3,46.1,54.4,48.8,42.3,96,88,72,29.52,28.92,10,2,17,0.13
2013-10-24,60.5,49.9,46.0,49.7,45.1,42.5,93,84,60,29.82,29.52,7,1,12,0.01
2013-10-25,60.2,52.8,48.3,56.3,50.4,44.5,97,92,84,29.77,29.24,8,1,13,0.35
2013-10-26,55.6,51.9,47.3,53.6,48.5,45.0,94,88,77,29.37,29.08,13,1,15,0.13
2013-10-27,53.0,50.2,48.3,49.7,47.5,45.9,95,91,84,29.09,28.78,12,3,21,0.57
2013-10-28,51.7,48.3,44.4,48.2,46.1,42.2,96,92,85,29.30,28.82,6,1,10,0.15
2013-10-29,53.5,45.7,40.9,46.7,42.1,38.6,94,88,73,29.82,29.30,8,1,14,0.02
2013-10-30,54.3,46.8,37.8,52.3,44.1,36.3,97,91,80,29.85,29.53,12,2,17,0.23
2013-10-31,54.8,48.2,43.8,48.3,44.6,41.4,93,88,76,29.74,29.54,11,2,16,0.11
2013-11-1,52.9,46.9,40.2,45.2,42.4,38.3,94,85,72,29.55,29.49,11,2,16,0.04
2013-11-2,44.2,40.9,37.1,43.1,39.6,36.0,97,95,90,29.49,28.80,6,1,15,0.55
2013-11-3,50.8,43.3,33.9,44.1,38.8,32.3,95,85,68,29.25,28.93,10,2,18,0.01
2013-11-4,51.2,37.7,30.4,43.4,34.7,28.8,98,90,68,29.32,29.17,6,0,10,0.01
2013-11-5,41.9,36.4,30.4,40.2,35.0,29.1,97,95,90,29.27,29.12,6,0,15,0.12
2013-11-6,45.9,41.5,37.6,43.6,39.8,36.1,96,94,88,29.32,29.19,5,0,11,0.16
2013-11-7,48.3,43.7,37.8,44.5,40.9,35.9,96,90,80,29.41,29.30,9,2,22,0.28
2013-11-8,49.8,43.4,38.2,45.6,40.7,36.6,96,90,81,29.49,29.40,6,1,12,0.13
2013-11-9,42.4,36.7,30.8,41.6,35.5,29.7,97,96,93,29.60,29.45,4,0,8,0.11
2013-11-10,50.0,38.5,30.6,43.8,35.9,29.5,98,91,70,30.03,29.61,4,0,9,0.01
2013-11-11,55.1,48.4,40.3,53.8,45.8,38.1,98,91,76,29.97,29.73,8,1,14,0.14
2013-11-12,50.7,45.8,41.7,46.1,41.9,39.5,93,86,74,30.31,29.97,12,2,18,0.08
2013-11-13,49.4,46.9,43.0,46.7,43.4,40.1,93,88,78,30.31,29.75,10,2,17,0.19
2013-11-14,47.8,44.1,40.8,45.5,39.1,36.0,93,82,73,30.42,29.75,12,3,25,0.06
2013-11-15,51.7,48.9,42.7,49.1,45.9,39.3,94,89,86,30.41,30.29,9,1,13,0.01
2013-11-16,53.7,50.6,41.4,50.9,47.1,38.9,96,88,82,30.29,30.16,12,3,21,0.02
2013-11-17,43.2,39.2,32.2,41.6,37.9,31.1,97,95,92,30.30,29.86,1,0,3,0.02
2013-11-18,46.2,38.7,34.2,42.7,36.6,32.6,98,92,75,29.87,29.72,6,0,11,0.06
2013-11-19,44.5,35.9,29.0,42.3,33.2,27.5,96,90,75,29.97,29.55,9,1,17,0.18
2013-11-20,45.7,42.1,38.8,43.7,36.1,30.5,93,80,68,29.78,29.37,10,3,17,0.16
2013-11-21,42.7,35.6,27.5,34.0,29.7,25.4,93,79,65,30.11,29.76,5,0,7,0.00
2013-11-22,35.2,27.7,23.0,31.1,25.9,21.4,96,93,83,30.23,30.11,0,0,1,0.00
2013-11-23,45.2,36.0,30.0,41.5,34.0,28.4,96,93,82,30.38,30.23,1,0,3,0.01
2013-11-24,36.3,33.1,27.7,35.5,32.0,26.5,97,96,95,30.62,30.38,0,0,2,0.00
2013-11-25,36.5,32.7,29.5,35.7,31.9,28.7,98,97,96,30.67,30.62,0,0,0,0.01
2013-11-26,52.6,46.3,36.1,49.6,44.9,35.3,98,95,88,30.64,30.47,5,1,12,0.04
2013-11-27,53.6,51.4,48.9,49.5,48.5,46.0,94,90,82,30.48,30.42,8,1,12,0.00
2013-11-28,48.8,42.8,37.0,47.0,40.6,35.5,97,92,83,30.55,30.29,6,0,11,0.00
2013-11-29,49.2,44.9,42.0,47.0,40.7,37.2,94,86,78,30.28,30.06,14,4,20,0.18
2013-11-30,48.7,44.2,37.7,45.9,40.8,34.6,94,88,82,30.34,30.23,7,1,12,0.00
2013-12-1,52.7,46.7,42.2,46.9,44.1,40.3,95,91,78,30.51,30.32,5,1,8,0.00
2013-12-2,47.8,46.6,44.0,45.0,43.1,40.3,94,88,79,30.51,30.26,6,1,10,0.01
2013-12-3,49.9,47.4,39.5,47.8,45.0,37.0,94,92,88,30.26,30.05,9,2,14,0.06
2013-12-4,45.2,41.2,35.1,42.2,38.0,33.0,96,89,81,30.25,30.01,9,2,20,0.12
2013-12-5,48.6,41.1,34.2,46.7,36.8,27.2,94,85,68,30.08,29.43,22,6,36,0.46
2013-12-6,38.9,36.5,34.2,33.7,30.8,26.2,96,80,63,30.26,30.08,13,1,14,0.06
2013-12-7,50.5,41.1,34.6,47.4,39.7,33.5,98,95,87,30.15,29.88,11,1,15,0.06
2013-12-8,54.9,51.9,49.1,52.0,49.6,46.0,96,92,85,29.89,29.79,13,5,22,0.26
2013-12-9,54.7,52.2,48.8,52.0,48.7,44.8,92,88,82,30.12,29.88,16,3,20,0.00
2013-12-10,56.2,52.3,49.4,51.4,47.7,43.3,90,85,75,30.12,30.07,11,3,18,0.00
2013-12-11,54.5,50.3,42.8,51.4,46.3,39.3,90,86,79,30.16,29.94,9,2,15,0.00
2013-12-12,56.0,53.1,47.8,53.7,50.9,41.3,96,92,77,29.94,29.83,8,1,12,0.36
2013-12-13,55.6,51.1,44.0,52.8,48.0,38.7,95,89,82,29.83,29.63,10,2,16,0.07
2013-12-14,52.3,47.2,41.4,50.1,43.7,37.2,94,88,82,29.84,29.33,24,4,29,0.82
2013-12-15,51.5,44.9,40.6,47.0,41.5,37.4,96,88,79,29.77,29.45,16,2,29,0.22
2013-12-16,48.5,43.9,40.2,45.7,39.4,36.8,91,84,74,29.90,29.43,9,2,19,0.10
2013-12-17,46.9,43.0,38.7,40.7,38.2,36.1,92,83,76,30.00,29.62,9,2,18,0.00
2013-12-18,53.2,49.1,44.7,49.6,45.6,37.4,95,88,72,29.62,28.65,19,4,29,0.33
2013-12-19,45.0,40.7,38.2,39.1,36.2,34.5,92,84,78,29.41,28.73,13,4,26,0.11
2013-12-20,51.8,44.8,37.8,49.0,42.1,35.2,94,90,85,29.65,29.27,17,4,27,0.62
2013-12-21,48.3,45.8,40.7,44.1,41.3,37.1,91,84,80,29.40,29.18,11,4,22,0.16
2013-12-22,43.4,40.2,36.6,39.1,36.4,34.4,93,87,80,29.44,29.22,10,3,20,0.16
2013-12-23,50.2,43.0,38.3,47.7,39.6,35.0,97,88,81,29.44,28.18,14,3,17,0.17
2013-12-24,50.1,42.0,38.4,46.0,36.5,32.2,91,81,69,28.39,28.16,22,7,31,0.42
2013-12-25,44.8,42.9,40.1,41.3,38.9,35.7,93,86,76,28.99,28.39,12,3,22,0.26
2013-12-26,44.0,40.4,37.5,41.0,37.8,35.7,95,91,82,29.21,28.48,9,1,16,0.03
2013-12-27,47.8,45.1,39.6,44.0,41.9,36.7,93,88,80,28.70,28.06,21,6,25,0.48
2013-12-28,44.1,42.2,39.6,40.8,38.9,36.6,94,88,82,29.42,28.70,15,3,21,0.22
2013-12-29,47.4,42.4,38.1,45.7,40.0,36.5,96,91,84,29.72,29.36,8,1,15,0.57
2013-12-30,49.8,43.3,37.9,48.4,41.9,36.2,96,95,92,29.53,29.25,7,1,14,0.56
2013-12-31,46.3,42.8,37.8,42.6,39.5,36.3,96,88,83,29.50,29.13,12,2,18,0.04
2014-1-1,44.3,41.5,38.6,43.5,39.4,36.8,97,92,85,29.19,28.57,12,1,16,0.40
2014-1-2,45.6,43.6,41.4,42.7,41.3,39.4,95,92,88,29.04,28.64,9,2,14,0.12